Terminal Aerodrome Forecast
Issued by NWS

Home | Current Version | Previous Version | Text Only | Print | Product List | Glossary On
Versions: 1 2 3 4 5 6 7 8 9 10 11 12 13 14 15 16 17 18 19 20 21 22 23 24 25 26 27 28
000
FTUS46 KSEW 282100 AAA
TAFSEA
TAF AMD
KSEA 282100Z 2821/2924 18010KT P6SM -RA OVC030
     FM291000 18012KT 4SM RA BR OVC012
     FM291700 22012G22KT P6SM -SHRA BKN020 BKN040=

USA.gov is the U.S. government's official web portal to all federal, state and local government web resources and services.